sensor_id;sensor_type;location;lat;lon;timestamp;P1;durP1;ratioP1;P2;durP2;ratioP2
1086;SDS011;532;49.436;11.100;2022-08-19T06:21:30;517.35;;;205.48;;
1086;SDS011;532;49.436;11.100;2022-08-19T06:23:58;531.75;;;210.32;;
1086;SDS011;532;49.436;11.100;2022-08-19T06:26:33;526.60;;;208.07;;
1086;SDS011;532;49.436;11.100;2022-08-19T06:29:04;574.88;;;226.32;;
1086;SDS011;532;49.436;11.100;2022-08-19T06:31:34;559.75;;;220.15;;
1086;SDS011;532;49.436;11.100;2022-08-19T06:34:04;566.80;;;222.20;;
1086;SDS011;532;49.436;11.100;2022-08-19T06:36:35;550.88;;;217.20;;
1086;SDS011;532;49.436;11.100;2022-08-19T06:39:06;540.13;;;213.80;;
1086;SDS011;532;49.436;11.100;2022-08-19T06:41:35;550.28;;;217.00;;
1086;SDS011;532;49.436;11.100;2022-08-19T06:44:18;539.23;;;212.70;;
1086;SDS011;532;49.436;11.100;2022-08-19T06:46:47;560.63;;;221.05;;
1086;SDS011;532;49.436;11.100;2022-08-19T06:49:20;554.03;;;219.05;;
1086;SDS011;532;49.436;11.100;2022-08-19T06:51:48;556.55;;;218.85;;
1086;SDS011;532;49.436;11.100;2022-08-19T06:54:17;569.97;;;224.40;;
1086;SDS011;532;49.436;11.100;2022-08-19T07:19:28;611.00;;;236.52;;
1086;SDS011;532;49.436;11.100;2022-08-19T07:21:58;628.88;;;242.32;;
1086;SDS011;532;49.436;11.100;2022-08-19T07:24:28;620.30;;;239.32;;
1086;SDS011;532;49.436;11.100;2022-08-19T07:26:59;624.92;;;240.45;;
1086;SDS011;532;49.436;11.100;2022-08-19T07:29:36;629.50;;;243.07;;
1086;SDS011;532;49.436;11.100;2022-08-19T07:34:59;620.05;;;240.30;;
1086;SDS011;532;49.436;11.100;2022-08-19T07:37:31;623.03;;;241.23;;
1086;SDS011;532;49.436;11.100;2022-08-19T07:40:02;634.10;;;244.85;;
1086;SDS011;532;49.436;11.100;2022-08-19T07:42:31;608.93;;;236.47;;
1086;SDS011;532;49.436;11.100;2022-08-19T07:44:59;619.43;;;240.50;;
1086;SDS011;532;49.436;11.100;2022-08-19T07:47:28;605.58;;;235.10;;
1086;SDS011;532;49.436;11.100;2022-08-19T07:50:18;591.72;;;230.43;;
1086;SDS011;532;49.436;11.100;2022-08-19T07:52:47;592.37;;;230.10;;
1086;SDS011;532;49.436;11.100;2022-08-19T07:55:17;634.70;;;244.77;;
1086;SDS011;532;49.436;11.100;2022-08-19T07:58:06;608.50;;;235.70;;
1086;SDS011;532;49.436;11.100;2022-08-19T08:00:35;648.88;;;249.38;;
1086;SDS011;532;49.436;11.100;2022-08-19T08:03:03;628.53;;;242.88;;
1086;SDS011;532;49.436;11.100;2022-08-19T08:05:33;651.25;;;250.82;;
1086;SDS011;532;49.436;11.100;2022-08-19T08:08:21;646.42;;;248.77;;
1086;SDS011;532;49.436;11.100;2022-08-19T08:11:14;646.43;;;248.10;;
1086;SDS011;532;49.436;11.100;2022-08-19T08:13:45;621.40;;;240.88;;
1086;SDS011;532;49.436;11.100;2022-08-19T08:16:27;647.63;;;249.80;;
1086;SDS011;532;49.436;11.100;2022-08-19T08:18:57;677.60;;;259.30;;
1086;SDS011;532;49.436;11.100;2022-08-19T08:21:28;701.35;;;266.92;;
1086;SDS011;532;49.436;11.100;2022-08-19T08:23:56;666.50;;;255.57;;
1086;SDS011;532;49.436;11.100;2022-08-19T08:26:33;650.28;;;250.85;;
1086;SDS011;532;49.436;11.100;2022-08-19T08:29:05;645.17;;;249.37;;
1086;SDS011;532;49.436;11.100;2022-08-19T08:31:42;648.03;;;249.52;;
1086;SDS011;532;49.436;11.100;2022-08-19T08:34:12;623.83;;;241.33;;
1086;SDS011;532;49.436;11.100;2022-08-19T08:36:43;634.17;;;244.02;;
1086;SDS011;532;49.436;11.100;2022-08-19T08:39:15;646.65;;;248.75;;
1086;SDS011;532;49.436;11.100;2022-08-19T08:41:49;588.55;;;228.70;;
1086;SDS011;532;49.436;11.100;2022-08-19T08:44:20;660.90;;;253.95;;
1086;SDS011;532;49.436;11.100;2022-08-19T08:46:55;656.50;;;252.82;;
1086;SDS011;532;49.436;11.100;2022-08-19T08:49:26;611.42;;;236.13;;
1086;SDS011;532;49.436;11.100;2022-08-19T08:52:02;571.85;;;223.65;;
1086;SDS011;532;49.436;11.100;2022-08-19T08:54:35;577.78;;;225.73;;
1086;SDS011;532;49.436;11.100;2022-08-19T08:57:09;569.10;;;221.57;;
1086;SDS011;532;49.436;11.100;2022-08-19T08:59:42;559.67;;;219.23;;
1086;SDS011;532;49.436;11.100;2022-08-19T09:02:11;567.70;;;223.82;;
1086;SDS011;532;49.436;11.100;2022-08-19T09:04:39;574.20;;;226.20;;
1086;SDS011;532;49.436;11.100;2022-08-19T09:07:15;521.95;;;206.07;;
1086;SDS011;532;49.436;11.100;2022-08-19T09:10:02;612.15;;;238.93;;
1086;SDS011;532;49.436;11.100;2022-08-19T09:12:39;622.42;;;241.85;;
1086;SDS011;532;49.436;11.100;2022-08-19T09:15:42;632.35;;;245.35;;
1086;SDS011;532;49.436;11.100;2022-08-19T09:18:13;618.93;;;241.27;;
1086;SDS011;532;49.436;11.100;2022-08-19T09:20:47;611.10;;;238.88;;
1086;SDS011;532;49.436;11.100;2022-08-19T09:23:18;622.58;;;242.40;;
1086;SDS011;532;49.436;11.100;2022-08-19T09:25:52;626.15;;;244.15;;
1086;SDS011;532;49.436;11.100;2022-08-19T09:31:40;653.30;;;252.27;;
1086;SDS011;532;49.436;11.100;2022-08-19T09:34:08;658.75;;;254.88;;
1086;SDS011;532;49.436;11.100;2022-08-19T09:36:47;661.97;;;255.10;;
1086;SDS011;532;49.436;11.100;2022-08-19T09:39:21;675.80;;;259.37;;
1086;SDS011;532;49.436;11.100;2022-08-19T09:41:49;683.92;;;261.95;;
1086;SDS011;532;49.436;11.100;2022-08-19T09:44:18;573.17;;;224.65;;
1086;SDS011;532;49.436;11.100;2022-08-19T09:46:47;572.92;;;226.32;;
1086;SDS011;532;49.436;11.100;2022-08-19T09:49:20;692.63;;;265.40;;
1086;SDS011;532;49.436;11.100;2022-08-19T09:51:50;673.47;;;257.50;;
1086;SDS011;532;49.436;11.100;2022-08-19T09:54:22;605.72;;;236.02;;
1086;SDS011;532;49.436;11.100;2022-08-19T09:56:51;598.53;;;234.13;;
1086;SDS011;532;49.436;11.100;2022-08-19T09:59:21;608.47;;;236.88;;
1086;SDS011;532;49.436;11.100;2022-08-19T10:01:52;624.17;;;243.68;;
1086;SDS011;532;49.436;11.100;2022-08-19T10:04:31;571.47;;;225.73;;
1086;SDS011;532;49.436;11.100;2022-08-19T10:07:13;614.72;;;240.15;;
1086;SDS011;532;49.436;11.100;2022-08-19T10:09:43;735.03;;;278.38;;
1086;SDS011;532;49.436;11.100;2022-08-19T10:12:12;999.07;;;357.77;;
1086;SDS011;532;49.436;11.100;2022-08-19T10:14:47;702.28;;;268.13;;
1086;SDS011;532;49.436;11.100;2022-08-19T10:17:17;1048.32;;;369.58;;
1086;SDS011;532;49.436;11.100;2022-08-19T10:19:49;957.95;;;342.67;;
1086;SDS011;532;49.436;11.100;2022-08-19T10:22:21;1066.22;;;376.90;;
1086;SDS011;532;49.436;11.100;2022-08-19T10:24:54;738.05;;;281.27;;
1086;SDS011;532;49.436;11.100;2022-08-19T10:27:47;1089.70;;;378.77;;
1086;SDS011;532;49.436;11.100;2022-08-19T10:30:17;599.65;;;232.70;;
1086;SDS011;532;49.436;11.100;2022-08-19T10:32:47;1194.78;;;408.17;;
1086;SDS011;532;49.436;11.100;2022-08-19T10:35:18;938.10;;;336.83;;
1086;SDS011;532;49.436;11.100;2022-08-19T10:37:48;877.17;;;319.50;;
1086;SDS011;532;49.436;11.100;2022-08-19T10:40:28;917.58;;;331.45;;
1086;SDS011;532;49.436;11.100;2022-08-19T10:42:56;1020.95;;;361.50;;
1086;SDS011;532;49.436;11.100;2022-08-19T10:45:31;1034.22;;;364.08;;
1086;SDS011;532;49.436;11.100;2022-08-19T10:47:59;787.35;;;295.10;;
1086;SDS011;532;49.436;11.100;2022-08-19T10:50:27;619.40;;;242.70;;
1086;SDS011;532;49.436;11.100;2022-08-19T10:53:14;551.92;;;217.85;;
1086;SDS011;532;49.436;11.100;2022-08-19T10:55:44;569.67;;;224.95;;
1086;SDS011;532;49.436;11.100;2022-08-19T10:58:26;628.97;;;245.35;;
1086;SDS011;532;49.436;11.100;2022-08-19T11:00:54;623.47;;;242.75;;
1086;SDS011;532;49.436;11.100;2022-08-19T11:03:24;991.70;;;351.02;;
1086;SDS011;532;49.436;11.100;2022-08-19T11:05:57;914.63;;;329.90;;
1086;SDS011;532;49.436;11.100;2022-08-19T11:08:26;783.58;;;293.00;;
1086;SDS011;532;49.436;11.100;2022-08-19T11:10:57;967.78;;;344.00;;
1086;SDS011;532;49.436;11.100;2022-08-19T11:13:30;1004.78;;;354.80;;
1086;SDS011;532;49.436;11.100;2022-08-19T11:16:01;762.40;;;286.30;;
1086;SDS011;532;49.436;11.100;2022-08-19T11:18:34;703.58;;;268.55;;
1086;SDS011;532;49.436;11.100;2022-08-19T11:21:08;690.15;;;262.63;;
1086;SDS011;532;49.436;11.100;2022-08-19T11:23:38;677.28;;;259.45;;
1086;SDS011;532;49.436;11.100;2022-08-19T11:26:18;675.17;;;258.23;;
1086;SDS011;532;49.436;11.100;2022-08-19T11:29:12;661.55;;;254.32;;
1086;SDS011;532;49.436;11.100;2022-08-19T11:31:42;655.38;;;252.32;;
1086;SDS011;532;49.436;11.100;2022-08-19T11:34:12;683.97;;;261.58;;
1086;SDS011;532;49.436;11.100;2022-08-19T11:36:43;711.92;;;270.77;;
1086;SDS011;532;49.436;11.100;2022-08-19T11:39:15;720.05;;;274.02;;
1086;SDS011;532;49.436;11.100;2022-08-19T11:41:45;723.80;;;273.98;;
1086;SDS011;532;49.436;11.100;2022-08-19T11:44:13;680.08;;;260.63;;
1086;SDS011;532;49.436;11.100;2022-08-19T11:46:42;709.67;;;270.92;;
1086;SDS011;532;49.436;11.100;2022-08-19T11:49:13;708.33;;;269.35;;
1086;SDS011;532;49.436;11.100;2022-08-19T11:51:42;762.27;;;286.00;;
1086;SDS011;532;49.436;11.100;2022-08-19T11:54:13;735.50;;;278.35;;
1086;SDS011;532;49.436;11.100;2022-08-19T11:56:42;758.85;;;285.48;;
1086;SDS011;532;49.436;11.100;2022-08-19T11:59:14;406.30;;;164.60;;
1086;SDS011;532;49.436;11.100;2022-08-19T12:01:44;426.52;;;171.18;;
1086;SDS011;532;49.436;11.100;2022-08-19T12:04:12;411.58;;;167.25;;
1086;SDS011;532;49.436;11.100;2022-08-19T12:06:41;423.15;;;169.52;;
1086;SDS011;532;49.436;11.100;2022-08-19T12:09:09;43.40;;;39.37;;
1086;SDS011;532;49.436;11.100;2022-08-19T12:11:38;21.07;;;18.23;;
1086;SDS011;532;49.436;11.100;2022-08-19T12:14:09;31.20;;;28.45;;
1086;SDS011;532;49.436;11.100;2022-08-19T12:16:43;17.83;;;10.50;;
1086;SDS011;532;49.436;11.100;2022-08-19T12:22:11;16.05;;;9.18;;
1086;SDS011;532;49.436;11.100;2022-08-19T12:24:40;15.88;;;9.32;;
1086;SDS011;532;49.436;11.100;2022-08-19T12:27:08;16.83;;;9.57;;
1086;SDS011;532;49.436;11.100;2022-08-19T12:29:40;15.35;;;8.90;;
1086;SDS011;532;49.436;11.100;2022-08-19T12:32:08;17.43;;;9.70;;
1086;SDS011;532;49.436;11.100;2022-08-19T12:35:01;15.57;;;9.02;;
1086;SDS011;532;49.436;11.100;2022-08-19T12:37:29;18.75;;;9.68;;
1086;SDS011;532;49.436;11.100;2022-08-19T12:39:58;15.17;;;9.40;;
1086;SDS011;532;49.436;11.100;2022-08-19T12:42:29;17.03;;;9.83;;
1086;SDS011;532;49.436;11.100;2022-08-19T12:44:58;17.70;;;9.00;;
1086;SDS011;532;49.436;11.100;2022-08-19T12:47:27;14.73;;;8.68;;
1086;SDS011;532;49.436;11.100;2022-08-19T12:49:58;16.35;;;9.05;;
1086;SDS011;532;49.436;11.100;2022-08-19T12:52:30;17.15;;;9.07;;
1086;SDS011;532;49.436;11.100;2022-08-19T12:55:01;17.52;;;9.48;;
1086;SDS011;532;49.436;11.100;2022-08-19T12:57:34;18.38;;;9.70;;
1086;SDS011;532;49.436;11.100;2022-08-19T13:00:06;17.23;;;9.55;;
1086;SDS011;532;49.436;11.100;2022-08-19T13:02:37;17.58;;;10.13;;
1086;SDS011;532;49.436;11.100;2022-08-19T13:05:06;18.25;;;9.50;;
1086;SDS011;532;49.436;11.100;2022-08-19T13:07:37;18.35;;;9.82;;
1086;SDS011;532;49.436;11.100;2022-08-19T13:10:07;18.92;;;10.30;;
1086;SDS011;532;49.436;11.100;2022-08-19T13:12:40;21.58;;;11.18;;
1086;SDS011;532;49.436;11.100;2022-08-19T13:15:10;17.53;;;10.50;;
1086;SDS011;532;49.436;11.100;2022-08-19T13:17:41;18.95;;;10.80;;
1086;SDS011;532;49.436;11.100;2022-08-19T13:20:10;19.53;;;10.57;;
1086;SDS011;532;49.436;11.100;2022-08-19T13:23:05;21.57;;;11.93;;
1086;SDS011;532;49.436;11.100;2022-08-19T13:25:34;20.60;;;11.27;;
1086;SDS011;532;49.436;11.100;2022-08-19T13:28:06;24.43;;;11.70;;
1086;SDS011;532;49.436;11.100;2022-08-19T13:30:39;20.40;;;11.60;;
1086;SDS011;532;49.436;11.100;2022-08-19T13:33:27;18.57;;;11.30;;
1086;SDS011;532;49.436;11.100;2022-08-19T13:35:59;19.50;;;11.77;;
1086;SDS011;532;49.436;11.100;2022-08-19T13:38:28;20.30;;;11.93;;
1086;SDS011;532;49.436;11.100;2022-08-19T13:41:03;21.23;;;11.50;;
1086;SDS011;532;49.436;11.100;2022-08-19T13:43:37;21.57;;;11.63;;
1086;SDS011;532;49.436;11.100;2022-08-19T13:46:09;21.50;;;11.38;;
1086;SDS011;532;49.436;11.100;2022-08-19T13:48:41;21.25;;;11.30;;
1086;SDS011;532;49.436;11.100;2022-08-19T13:51:09;19.60;;;10.60;;
1086;SDS011;532;49.436;11.100;2022-08-19T13:53:37;21.40;;;10.83;;
1086;SDS011;532;49.436;11.100;2022-08-19T13:56:16;17.58;;;10.15;;
1086;SDS011;532;49.436;11.100;2022-08-19T13:58:53;18.25;;;10.20;;
1086;SDS011;532;49.436;11.100;2022-08-19T14:01:26;17.40;;;10.27;;
1086;SDS011;532;49.436;11.100;2022-08-19T14:03:54;15.82;;;9.57;;
1086;SDS011;532;49.436;11.100;2022-08-19T14:06:25;15.77;;;9.60;;
1086;SDS011;532;49.436;11.100;2022-08-19T14:08:52;17.65;;;9.50;;
1086;SDS011;532;49.436;11.100;2022-08-19T14:11:23;17.63;;;10.50;;
1086;SDS011;532;49.436;11.100;2022-08-19T14:13:51;19.20;;;10.90;;
1086;SDS011;532;49.436;11.100;2022-08-19T14:16:20;18.38;;;9.88;;
1086;SDS011;532;49.436;11.100;2022-08-19T14:18:50;16.55;;;9.80;;
1086;SDS011;532;49.436;11.100;2022-08-19T14:21:21;16.73;;;8.52;;
1086;SDS011;532;49.436;11.100;2022-08-19T14:23:50;13.70;;;7.32;;
1086;SDS011;532;49.436;11.100;2022-08-19T14:26:21;14.47;;;8.33;;
1086;SDS011;532;49.436;11.100;2022-08-19T14:29:13;13.67;;;7.60;;
1086;SDS011;532;49.436;11.100;2022-08-19T14:31:42;12.98;;;6.70;;
1086;SDS011;532;49.436;11.100;2022-08-19T14:34:12;11.73;;;5.93;;
1086;SDS011;532;49.436;11.100;2022-08-19T14:36:40;10.52;;;5.10;;
1086;SDS011;532;49.436;11.100;2022-08-19T14:39:10;8.20;;;4.97;;
1086;SDS011;532;49.436;11.100;2022-08-19T14:41:39;9.23;;;5.35;;
1086;SDS011;532;49.436;11.100;2022-08-19T14:44:08;11.45;;;5.97;;
1086;SDS011;532;49.436;11.100;2022-08-19T14:46:38;10.30;;;6.00;;
1086;SDS011;532;49.436;11.100;2022-08-19T14:49:16;12.55;;;6.25;;
1086;SDS011;532;49.436;11.100;2022-08-19T14:51:57;16.23;;;11.98;;
1086;SDS011;532;49.436;11.100;2022-08-19T14:54:25;11.10;;;6.50;;
1086;SDS011;532;49.436;11.100;2022-08-19T14:56:56;12.97;;;7.47;;
1086;SDS011;532;49.436;11.100;2022-08-19T14:59:24;14.68;;;7.38;;
1086;SDS011;532;49.436;11.100;2022-08-19T15:01:52;45.45;;;41.17;;
1086;SDS011;532;49.436;11.100;2022-08-19T15:04:21;12.95;;;7.80;;
1086;SDS011;532;49.436;11.100;2022-08-19T15:06:49;16.63;;;8.75;;
1086;SDS011;532;49.436;11.100;2022-08-19T15:09:17;17.30;;;8.88;;
1086;SDS011;532;49.436;11.100;2022-08-19T15:11:45;23.17;;;17.13;;
1086;SDS011;532;49.436;11.100;2022-08-19T15:14:13;14.10;;;8.27;;
1086;SDS011;532;49.436;11.100;2022-08-19T15:16:42;47.63;;;42.67;;
1086;SDS011;532;49.436;11.100;2022-08-19T15:19:12;42.25;;;38.47;;
1086;SDS011;532;49.436;11.100;2022-08-19T15:21:42;63.30;;;54.65;;
1086;SDS011;532;49.436;11.100;2022-08-19T15:24:13;39.10;;;35.05;;
1086;SDS011;532;49.436;11.100;2022-08-19T15:26:43;16.77;;;9.80;;
1086;SDS011;532;49.436;11.100;2022-08-19T15:29:12;15.38;;;9.18;;
1086;SDS011;532;49.436;11.100;2022-08-19T15:31:43;15.60;;;8.65;;
1086;SDS011;532;49.436;11.100;2022-08-19T15:34:14;14.48;;;8.77;;
1086;SDS011;532;49.436;11.100;2022-08-19T15:36:44;15.82;;;9.25;;
1086;SDS011;532;49.436;11.100;2022-08-19T15:39:12;21.45;;;16.20;;
1086;SDS011;532;49.436;11.100;2022-08-19T15:41:40;39.00;;;26.77;;
1086;SDS011;532;49.436;11.100;2022-08-19T15:44:11;15.63;;;9.17;;
1086;SDS011;532;49.436;11.100;2022-08-19T15:46:41;19.65;;;10.43;;
1086;SDS011;532;49.436;11.100;2022-08-19T15:49:11;14.23;;;8.77;;
1086;SDS011;532;49.436;11.100;2022-08-19T15:51:41;15.55;;;9.48;;
1086;SDS011;532;49.436;11.100;2022-08-19T15:54:12;14.97;;;8.33;;
